createdAt,value
2023-03-26T00:00:54.323Z,0.00
2023-03-26T00:03:58.077Z,0.00
2023-03-26T00:07:00.913Z,0.00
2023-03-26T00:10:06.572Z,0.00
2023-03-26T00:13:10.350Z,0.00
2023-03-26T00:16:14.774Z,0.10
2023-03-26T00:19:17.385Z,0.00
2023-03-26T00:22:23.675Z,0.25
2023-03-26T00:25:26.393Z,0.10
2023-03-26T00:28:29.823Z,0.10
2023-03-26T00:31:33.279Z,0.20
2023-03-26T00:34:36.609Z,0.15
2023-03-26T00:37:42.488Z,0.25
2023-03-26T00:40:48.189Z,0.10
2023-03-26T00:43:53.496Z,0.20
2023-03-26T00:46:56.390Z,0.10
2023-03-26T00:49:59.970Z,0.00
2023-03-26T00:53:03.789Z,0.15
2023-03-26T00:56:08.693Z,0.10
2023-03-26T00:59:12.691Z,0.05
2023-03-26T01:02:18.725Z,0.00
2023-03-26T01:05:55.800Z,0.20
2023-03-26T01:09:07.030Z,0.20
2023-03-26T01:12:18.294Z,0.10
2023-03-26T01:15:22.142Z,0.10
2023-03-26T01:18:28.487Z,0.00
2023-03-26T01:21:34.539Z,0.10
2023-03-26T01:24:38.382Z,0.10
2023-03-26T01:27:50.123Z,0.40
2023-03-26T01:31:18.395Z,0.20
2023-03-26T01:34:30.702Z,0.10
2023-03-26T01:37:46.901Z,0.00
2023-03-26T01:41:07.120Z,0.00
2023-03-26T01:44:19.451Z,0.10
2023-03-26T01:47:22.772Z,0.10
2023-03-26T01:50:26.387Z,0.00
2023-03-26T01:53:29.505Z,0.00
2023-03-26T01:56:41.775Z,0.03
2023-03-26T02:00:07.245Z,0.17
2023-03-26T02:03:27.931Z,0.10
2023-03-26T02:06:44.562Z,0.10
2023-03-26T02:09:55.440Z,0.00
2023-03-26T02:12:59.250Z,0.00
2023-03-26T02:16:05.777Z,0.00
2023-03-26T02:19:15.523Z,0.10
2023-03-26T02:22:18.366Z,0.10
2023-03-26T02:25:22.205Z,0.10
2023-03-26T02:28:26.588Z,0.00
2023-03-26T02:31:30.347Z,0.10
2023-03-26T02:34:33.523Z,0.10
2023-03-26T02:37:36.252Z,0.30
2023-03-26T02:40:48.243Z,0.20
2023-03-26T02:43:51.128Z,0.10
2023-03-26T02:46:57.241Z,0.10
2023-03-26T02:50:21.213Z,0.22
2023-03-26T02:53:44.161Z,0.30
2023-03-26T02:57:01.900Z,0.28
2023-03-26T03:00:17.960Z,0.30
2023-03-26T03:03:27.551Z,0.30
2023-03-26T03:06:38.322Z,0.47
2023-03-26T03:09:42.249Z,0.50
2023-03-26T03:13:07.911Z,0.55
2023-03-26T03:16:11.438Z,0.50
2023-03-26T03:19:14.591Z,0.47
2023-03-26T03:22:18.471Z,0.40
2023-03-26T03:25:23.428Z,0.57
2023-03-26T03:28:26.741Z,0.85
2023-03-26T03:31:29.767Z,0.52
2023-03-26T03:34:38.850Z,0.40
2023-03-26T03:37:43.261Z,0.40
2023-03-26T03:40:47.582Z,0.67
2023-03-26T03:43:51.966Z,0.30
2023-03-26T03:47:02.369Z,0.47
2023-03-26T03:50:06.646Z,0.40
2023-03-26T03:53:15.844Z,0.35
2023-03-26T03:56:24.172Z,0.20
2023-03-26T03:59:58.379Z,0.40
2023-03-26T04:03:06.461Z,0.32
2023-03-26T04:06:11.134Z,0.43
2023-03-26T04:09:14.907Z,0.63
2023-03-26T04:12:18.721Z,0.50
2023-03-26T04:15:36.030Z,0.40
2023-03-26T04:18:40.037Z,0.55
2023-03-26T04:21:49.565Z,0.70
2023-03-26T04:24:55.215Z,0.40
2023-03-26T04:28:07.152Z,0.53
2023-03-26T04:31:31.290Z,0.50
2023-03-26T04:34:36.472Z,0.35
2023-03-26T04:37:46.217Z,0.30
2023-03-26T04:41:00.853Z,0.30
2023-03-26T04:44:31.893Z,0.50
2023-03-26T04:47:39.854Z,0.60
2023-03-26T04:50:45.476Z,0.50
2023-03-26T04:54:00.028Z,0.60
2023-03-26T04:57:21.324Z,0.43
2023-03-26T05:00:32.472Z,0.50
2023-03-26T05:03:40.765Z,0.40
2023-03-26T05:06:46.980Z,0.60
2023-03-26T05:09:58.755Z,0.50
2023-03-26T05:13:18.465Z,0.47
2023-03-26T05:16:26.845Z,0.30
2023-03-26T05:19:33.804Z,0.50
2023-03-26T05:22:38.746Z,0.47
2023-03-26T05:25:59.523Z,0.57
2023-03-26T05:29:03.157Z,0.50
2023-03-26T05:32:12.909Z,0.60
2023-03-26T05:35:19.548Z,0.20
2023-03-26T05:38:23.536Z,0.70
2023-03-26T05:41:27.121Z,0.35
2023-03-26T05:44:29.952Z,0.50
2023-03-26T05:47:37.522Z,0.80
2023-03-26T05:50:41.549Z,0.70
2023-03-26T05:53:44.598Z,0.30
2023-03-26T05:56:47.140Z,0.30
2023-03-26T06:00:10.800Z,0.10
2023-03-26T06:03:19.334Z,0.20
2023-03-26T06:07:02.381Z,0.32
2023-03-26T06:10:05.745Z,0.40
2023-03-26T06:13:08.333Z,0.20
2023-03-26T06:16:26.369Z,0.20
2023-03-26T06:19:48.011Z,0.33
2023-03-26T06:22:59.890Z,0.10
2023-03-26T06:26:38.060Z,0.20
2023-03-26T06:30:00.038Z,0.28
2023-03-26T06:33:16.588Z,0.20
2023-03-26T06:36:23.550Z,0.20
2023-03-26T06:39:27.041Z,0.30
2023-03-26T06:43:07.595Z,0.50
2023-03-26T06:46:43.146Z,0.28
2023-03-26T06:49:53.141Z,0.30
2023-03-26T06:53:15.971Z,0.20
2023-03-26T06:56:40.296Z,0.25
2023-03-26T07:00:15.851Z,0.45
2023-03-26T07:03:45.240Z,4.05
2023-03-26T07:07:06.645Z,0.40
2023-03-26T07:10:41.121Z,0.63
2023-03-26T07:14:07.534Z,0.32
2023-03-26T07:17:30.008Z,0.40
2023-03-26T07:20:56.578Z,0.20
2023-03-26T07:24:01.386Z,0.22
2023-03-26T07:27:59.871Z,0.30
2023-03-26T07:31:42.404Z,0.35
2023-03-26T07:35:49.110Z,0.35
2023-03-26T07:39:39.492Z,0.13
2023-03-26T07:43:03.388Z,0.20
2023-03-26T07:46:25.987Z,0.20
2023-03-26T07:49:58.158Z,0.17
2023-03-26T07:53:22.640Z,0.20
2023-03-26T07:56:59.257Z,0.10
2023-03-26T08:00:48.954Z,0.50
2023-03-26T08:07:48.487Z,0.20
2023-03-26T08:11:03.112Z,0.20
2023-03-26T08:14:29.474Z,0.10
2023-03-26T08:17:45.007Z,0.10
2023-03-26T08:20:58.437Z,0.20
2023-03-26T08:24:25.785Z,0.22
2023-03-26T08:28:09.026Z,0.20
2023-03-26T08:31:15.359Z,0.30
2023-03-26T08:34:17.966Z,0.30
2023-03-26T08:37:20.659Z,0.40
2023-03-26T08:40:44.022Z,0.50
2023-03-26T08:44:14.533Z,0.55
2023-03-26T08:47:25.772Z,0.45
2023-03-26T08:50:40.107Z,0.30
2023-03-26T08:54:02.165Z,0.93
2023-03-26T08:57:23.504Z,0.40
2023-03-26T09:01:00.285Z,0.73
2023-03-26T09:04:14.573Z,0.40
2023-03-26T09:07:36.734Z,0.20
2023-03-26T09:11:27.943Z,0.50
2023-03-26T09:14:33.523Z,0.50
2023-03-26T09:18:13.079Z,0.57
2023-03-26T09:21:36.423Z,0.30
2023-03-26T09:25:03.158Z,0.20
2023-03-26T09:28:24.962Z,0.10
2023-03-26T09:31:43.615Z,0.20
2023-03-26T09:35:15.802Z,0.38
2023-03-26T09:38:40.513Z,0.30
2023-03-26T09:41:59.430Z,0.30
2023-03-26T09:45:27.988Z,0.20
2023-03-26T09:48:54.188Z,0.40
2023-03-26T09:52:12.636Z,0.20
2023-03-26T09:55:48.651Z,0.38
2023-03-26T09:59:07.120Z,0.30
2023-03-26T10:02:46.576Z,0.30
2023-03-26T10:05:52.221Z,0.30
2023-03-26T10:09:24.689Z,0.45
2023-03-26T10:12:37.331Z,0.30
2023-03-26T10:15:45.728Z,0.40
2023-03-26T10:18:49.052Z,0.40
2023-03-26T10:22:22.949Z,0.57
2023-03-26T10:25:37.117Z,0.38
2023-03-26T10:29:11.184Z,0.50
2023-03-26T10:32:45.436Z,0.50
2023-03-26T10:36:26.925Z,0.23
2023-03-26T10:39:54.588Z,0.50
2023-03-26T10:43:37.083Z,0.40
2023-03-26T10:47:18.743Z,0.70
2023-03-26T10:51:07.863Z,0.60
2023-03-26T10:54:22.216Z,0.63
2023-03-26T10:57:25.862Z,0.60
2023-03-26T11:00:30.123Z,0.45
2023-03-26T11:03:54.582Z,0.40
2023-03-26T11:07:06.603Z,0.50
2023-03-26T11:10:39.336Z,0.70
2023-03-26T11:14:03.510Z,0.50
2023-03-26T11:17:40.541Z,0.40
2023-03-26T11:20:56.192Z,0.45
2023-03-26T11:24:46.530Z,0.40
2023-03-26T11:27:57.794Z,0.83
2023-03-26T11:31:39.313Z,0.75
2023-03-26T11:34:54.411Z,0.43
2023-03-26T11:38:02.448Z,0.60
2023-03-26T11:41:15.909Z,0.90
2023-03-26T11:44:38.465Z,0.50
2023-03-26T11:47:50.745Z,0.50
2023-03-26T11:51:14.938Z,0.90
2023-03-26T11:54:17.969Z,0.60
2023-03-26T11:57:28.347Z,0.60
2023-03-26T12:00:32.502Z,0.83
2023-03-26T12:03:38.277Z,0.80
2023-03-26T12:06:53.066Z,0.60
2023-03-26T12:10:18.386Z,1.00
2023-03-26T12:13:21.684Z,0.50
2023-03-26T12:16:24.630Z,0.53
2023-03-26T12:19:33.710Z,0.60
2023-03-26T12:22:39.925Z,0.45
2023-03-26T12:25:43.890Z,0.30
2023-03-26T12:28:49.446Z,0.40
2023-03-26T12:32:07.470Z,0.50
2023-03-26T12:35:18.936Z,0.57
2023-03-26T12:38:34.698Z,0.70
2023-03-26T12:44:43.637Z,0.52
2023-03-26T12:45:06.901Z,0.70
2023-03-26T12:48:15.706Z,0.50
2023-03-26T12:51:33.836Z,0.40
2023-03-26T12:54:36.972Z,0.75
2023-03-26T12:58:14.030Z,0.47
2023-03-26T13:01:50.551Z,0.70
2023-03-26T13:05:32.377Z,0.47
2023-03-26T13:09:03.522Z,0.70
2023-03-26T13:12:20.165Z,0.20
2023-03-26T13:15:34.664Z,0.50
2023-03-26T13:18:54.378Z,0.80
2023-03-26T13:22:20.157Z,0.60
2023-03-26T13:26:07.452Z,0.70
2023-03-26T13:29:30.423Z,0.70
2023-03-26T13:33:02.389Z,0.45
2023-03-26T13:36:30.132Z,0.80
2023-03-26T13:39:37.766Z,0.50
2023-03-26T13:43:06.657Z,1.00
2023-03-26T13:46:20.732Z,0.93
2023-03-26T13:50:05.617Z,0.80
2023-03-26T13:53:19.451Z,1.25
2023-03-26T13:56:32.037Z,1.03
2023-03-26T13:59:46.928Z,0.95
2023-03-26T14:02:57.992Z,1.38
2023-03-26T14:06:07.583Z,1.02
2023-03-26T14:09:55.542Z,1.13
2023-03-26T14:13:07.705Z,0.87
2023-03-26T14:16:25.839Z,1.00
2023-03-26T14:19:34.373Z,0.93
2023-03-26T14:23:31.072Z,1.00
2023-03-26T14:26:40.549Z,0.85
2023-03-26T14:30:04.991Z,5.17
2023-03-26T14:33:27.906Z,1.92
2023-03-26T14:37:06.545Z,1.63
2023-03-26T14:40:30.173Z,1.08
2023-03-26T14:43:58.801Z,0.85
2023-03-26T14:47:55.031Z,0.70
2023-03-26T14:51:09.606Z,1.08
2023-03-26T14:54:23.464Z,0.57
2023-03-26T14:57:33.210Z,0.60
2023-03-26T15:01:23.485Z,0.20
2023-03-26T15:05:07.018Z,0.50
2023-03-26T15:08:33.701Z,0.73
2023-03-26T15:11:49.582Z,0.73
2023-03-26T15:15:35.136Z,0.50
2023-03-26T15:19:08.875Z,0.20
2023-03-26T15:22:25.942Z,0.10
2023-03-26T15:25:40.942Z,0.30
2023-03-26T15:28:58.508Z,0.40
2023-03-26T15:32:26.873Z,0.30
2023-03-26T15:35:45.407Z,0.13
2023-03-26T15:39:15.180Z,0.10
2023-03-26T15:42:38.074Z,0.17
2023-03-26T15:45:54.048Z,0.30
2023-03-26T15:49:37.003Z,0.28
2023-03-26T15:52:55.228Z,0.40
2023-03-26T15:56:20.926Z,0.30
2023-03-26T15:59:41.779Z,0.13
2023-03-26T16:03:09.225Z,0.30
2023-03-26T16:06:28.001Z,0.47
2023-03-26T16:09:45.768Z,0.40
2023-03-26T16:13:22.854Z,0.60
2023-03-26T16:16:54.110Z,0.40
2023-03-26T16:20:23.406Z,0.63
2023-03-26T16:23:47.708Z,0.20
2023-03-26T16:26:51.686Z,0.47
2023-03-26T16:30:00.503Z,0.80
2023-03-26T16:33:15.449Z,0.40
2023-03-26T16:36:41.920Z,0.40
2023-03-26T16:39:44.898Z,0.20
2023-03-26T16:43:06.871Z,0.60
2023-03-26T16:46:23.675Z,0.60
2023-03-26T16:49:35.648Z,0.60
2023-03-26T16:52:52.000Z,0.60
2023-03-26T16:56:02.798Z,0.65
2023-03-26T16:59:29.752Z,0.90
2023-03-26T17:02:36.824Z,0.73
2023-03-26T17:05:56.653Z,0.82
2023-03-26T17:09:00.410Z,0.80
2023-03-26T17:12:27.117Z,0.80
2023-03-26T17:16:01.601Z,1.33
2023-03-26T17:19:17.790Z,1.00
2023-03-26T17:22:45.206Z,1.10
2023-03-26T17:26:22.295Z,1.20
2023-03-26T17:30:03.498Z,1.20
2023-03-26T17:33:25.594Z,1.67
2023-03-26T17:36:41.495Z,1.40
2023-03-26T17:39:46.879Z,1.17
2023-03-26T17:43:11.472Z,1.15
2023-03-26T17:46:37.736Z,1.10
2023-03-26T17:49:41.495Z,1.25
2023-03-26T17:53:07.363Z,1.10
2023-03-26T17:56:18.328Z,1.10
2023-03-26T17:59:25.502Z,0.98
2023-03-26T18:02:37.411Z,1.10
2023-03-26T18:05:40.538Z,1.25
2023-03-26T18:09:10.987Z,1.13
2023-03-26T18:12:26.810Z,1.13
2023-03-26T18:15:47.911Z,1.15
2023-03-26T18:18:57.678Z,1.50
2023-03-26T18:22:06.075Z,1.40
2023-03-26T18:25:22.925Z,1.83
2023-03-26T18:28:35.673Z,1.60
2023-03-26T18:31:42.661Z,1.70
2023-03-26T18:34:53.805Z,1.52
2023-03-26T18:38:01.114Z,1.35
2023-03-26T18:41:05.915Z,1.40
2023-03-26T18:44:16.970Z,1.23
2023-03-26T18:47:21.036Z,1.45
2023-03-26T18:50:29.309Z,1.58
2023-03-26T18:53:39.399Z,1.90
2023-03-26T18:56:47.185Z,1.60
2023-03-26T18:59:52.808Z,1.80
2023-03-26T19:03:05.142Z,1.58
2023-03-26T19:06:10.419Z,1.70
2023-03-26T19:09:30.392Z,1.85
2023-03-26T19:12:37.434Z,1.80
2023-03-26T19:15:42.421Z,1.60
2023-03-26T19:18:45.623Z,1.70
2023-03-26T19:21:50.139Z,2.35
2023-03-26T19:25:00.649Z,2.45
2023-03-26T19:28:06.303Z,2.20
2023-03-26T19:31:17.202Z,2.20
2023-03-26T19:34:33.800Z,2.20
2023-03-26T19:37:51.035Z,2.30
2023-03-26T19:40:57.194Z,2.00
2023-03-26T19:44:02.638Z,2.10
2023-03-26T19:47:17.471Z,1.88
2023-03-26T19:50:28.107Z,2.20
2023-03-26T19:53:37.407Z,2.10
2023-03-26T19:56:40.705Z,2.38
2023-03-26T19:59:43.662Z,1.90
2023-03-26T20:02:54.072Z,1.77
2023-03-26T20:05:58.102Z,1.92
2023-03-26T20:09:01.945Z,2.03
2023-03-26T20:12:04.544Z,1.92
2023-03-26T20:15:18.972Z,1.70
2023-03-26T20:18:22.778Z,2.10
2023-03-26T20:21:26.587Z,1.80
2023-03-26T20:24:31.127Z,1.95
2023-03-26T20:27:34.543Z,1.95
2023-03-26T20:30:38.913Z,1.80
2023-03-26T20:33:42.302Z,1.75
2023-03-26T20:36:47.092Z,2.05
2023-03-26T20:39:50.105Z,2.10
2023-03-26T20:42:52.757Z,2.17
2023-03-26T20:45:58.528Z,2.40
2023-03-26T20:49:02.032Z,2.25
2023-03-26T20:52:05.816Z,2.38
2023-03-26T20:55:12.717Z,2.47
2023-03-26T20:58:31.376Z,2.35
2023-03-26T21:01:34.903Z,2.60
2023-03-26T21:04:37.510Z,2.83
2023-03-26T21:07:42.925Z,3.08
2023-03-26T21:10:47.609Z,3.25
2023-03-26T21:14:02.097Z,3.00
2023-03-26T21:17:07.519Z,3.17
2023-03-26T21:20:13.618Z,3.85
2023-03-26T21:23:40.860Z,3.80
2023-03-26T21:26:52.821Z,3.30
2023-03-26T21:29:56.260Z,1.58
2023-03-26T21:32:59.784Z,0.87
2023-03-26T21:36:04.551Z,0.40
2023-03-26T21:39:11.123Z,0.40
2023-03-26T21:42:14.838Z,0.30
2023-03-26T21:45:19.456Z,0.50
2023-03-26T21:48:23.630Z,0.50
2023-03-26T21:51:27.569Z,0.60
2023-03-26T21:54:32.738Z,0.40
2023-03-26T21:57:45.426Z,0.57
2023-03-26T22:00:51.850Z,0.40
2023-03-26T22:04:06.673Z,0.50
2023-03-26T22:07:14.689Z,0.22
2023-03-26T22:10:19.220Z,0.40
2023-03-26T22:13:21.845Z,0.40
2023-03-26T22:16:25.482Z,0.75
2023-03-26T22:19:30.109Z,0.33
2023-03-26T22:22:32.947Z,0.40
2023-03-26T22:25:36.215Z,0.50
2023-03-26T22:28:39.821Z,0.20
2023-03-26T22:31:42.854Z,0.50
2023-03-26T22:34:45.720Z,0.50
2023-03-26T22:37:48.551Z,0.40
2023-03-26T22:40:57.280Z,0.50
2023-03-26T22:44:09.250Z,0.70
2023-03-26T22:47:22.582Z,0.40
2023-03-26T22:50:27.745Z,0.70
2023-03-26T22:53:31.884Z,0.40
2023-03-26T22:56:34.499Z,0.40
2023-03-26T22:59:37.694Z,0.40
2023-03-26T23:02:41.198Z,0.50
2023-03-26T23:05:54.953Z,0.50
2023-03-26T23:08:58.159Z,0.40
2023-03-26T23:12:01.303Z,0.40
2023-03-26T23:15:06.543Z,0.43
2023-03-26T23:18:09.194Z,0.60
2023-03-26T23:21:22.110Z,0.40
2023-03-26T23:24:26.447Z,0.77
2023-03-26T23:27:29.715Z,0.80
2023-03-26T23:30:35.052Z,0.73
2023-03-26T23:33:45.593Z,0.80
2023-03-26T23:36:49.991Z,0.90
2023-03-26T23:39:52.677Z,0.65
2023-03-26T23:42:56.559Z,0.80
2023-03-26T23:45:59.822Z,0.68
2023-03-26T23:49:03.806Z,0.70
2023-03-26T23:52:06.556Z,0.53
2023-03-26T23:55:09.255Z,0.57
2023-03-26T23:58:11.824Z,0.93
